Time;durP1;ratioP1;P1;durP2;ratioP2;P2;SDS_P1;SDS_P2;PMS_P1;PMS_P2;Temp;Humidity;BMP_temperature;BMP_pressure;BME280_temperature;BME280_humidity;BME280_pressure;Samples;Min_cycle;Max_cycle;Signal;HPM_P1;HPM_P2
2021/03/08 00:00:41;;;;;;;9.13;2.47;;;;;;;2.03;100.00;101556.41;4979854;28;20414;-69
2021/03/08 00:03:08;;;;;;;8.73;2.43;;;;;;;2.00;100.00;101561.41;4983558;28;20053;-69
2021/03/08 00:05:34;;;;;;;8.80;2.47;;;;;;;2.00;100.00;101556.25;4983020;28;20354;-69
2021/03/08 00:07:59;;;;;;;10.70;2.87;;;;;;;1.99;100.00;101555.38;4984826;28;20381;-69
2021/03/08 00:10:25;;;;;;;9.90;3.03;;;;;;;1.94;100.00;101551.69;4984384;28;20153;-69
2021/03/08 00:12:51;;;;;;;9.17;2.80;;;;;;;1.97;100.00;101553.53;4981826;28;20516;-69
2021/03/08 00:15:19;;;;;;;9.33;2.73;;;;;;;1.97;100.00;101556.13;4984509;28;20042;-69
2021/03/08 00:17:45;;;;;;;9.67;2.73;;;;;;;1.96;100.00;101555.22;4981716;28;20030;-69
2021/03/08 00:20:14;;;;;;;7.30;2.77;;;;;;;1.95;100.00;101562.91;4984189;28;20288;-70
2021/03/08 00:22:41;;;;;;;11.60;3.27;;;;;;;1.95;100.00;101556.03;4979050;28;20030;-70
2021/03/08 00:25:12;;;;;;;9.43;2.73;;;;;;;1.94;100.00;101553.38;4985048;28;20290;-69
2021/03/08 00:27:38;;;;;;;8.07;2.70;;;;;;;1.92;100.00;101560.13;4985587;28;20293;-70
2021/03/08 00:30:07;;;;;;;11.83;3.20;;;;;;;1.91;100.00;101560.94;4982689;28;20038;-70
2021/03/08 00:32:33;;;;;;;15.03;3.10;;;;;;;1.90;100.00;101570.38;4982577;28;20033;-70
2021/03/08 00:35:00;;;;;;;12.73;3.23;;;;;;;1.91;100.00;101561.84;4983159;28;20285;-69
2021/03/08 00:37:30;;;;;;;10.17;3.13;;;;;;;1.91;100.00;101561.84;4985077;28;20390;-70
2021/03/08 00:40:00;;;;;;;11.50;2.77;;;;;;;1.91;100.00;101566.13;4980483;28;20281;-70
2021/03/08 00:42:26;;;;;;;9.67;2.60;;;;;;;1.91;100.00;101566.13;4982420;28;20603;-70
2021/03/08 00:44:53;;;;;;;8.93;3.07;;;;;;;1.90;100.00;101565.22;4984100;28;20277;-70
2021/03/08 00:47:20;;;;;;;11.07;3.00;;;;;;;1.90;100.00;101567.81;4980963;28;20805;-70
2021/03/08 00:49:45;;;;;;;12.07;3.47;;;;;;;1.90;100.00;101570.38;4985240;28;20344;-70
2021/03/08 00:52:11;;;;;;;10.27;3.37;;;;;;;1.87;100.00;101567.66;4981193;28;20282;-70
2021/03/08 00:54:36;;;;;;;10.30;3.13;;;;;;;1.88;100.00;101561.69;4983238;28;20208;-70
2021/03/08 00:57:02;;;;;;;11.17;2.87;;;;;;;1.88;100.00;101563.38;4980845;28;20031;-70
2021/03/08 00:59:27;;;;;;;11.50;2.80;;;;;;;1.89;100.00;101558.31;4982707;28;20122;-70
2021/03/08 01:01:52;;;;;;;14.53;2.70;;;;;;;1.87;100.00;101559.03;4987490;28;20554;-70
2021/03/08 01:04:18;;;;;;;14.17;3.43;;;;;;;1.87;100.00;101554.78;4983213;28;20038;-70
2021/03/08 01:06:43;;;;;;;11.73;3.37;;;;;;;1.86;100.00;101553.00;4982368;28;20030;-70
2021/03/08 01:09:09;;;;;;;9.60;3.00;;;;;;;1.86;100.00;101550.41;4979827;28;20360;-70
2021/03/08 01:11:35;;;;;;;6.90;2.50;;;;;;;1.85;100.00;101556.38;4984015;28;20026;-70
2021/03/08 01:14:01;;;;;;;6.67;2.30;;;;;;;1.87;100.00;101553.88;4983753;28;20039;-70
2021/03/08 01:16:26;;;;;;;8.33;2.17;;;;;;;1.84;100.00;101552.03;4981669;28;20288;-70
2021/03/08 01:18:52;;;;;;;11.60;1.80;;;;;;;1.82;100.00;101545.94;4982853;28;20068;-70
2021/03/08 01:21:17;;;;;;;8.77;1.40;;;;;;;1.82;100.00;101551.09;4985611;28;20030;-70
2021/03/08 01:23:43;;;;;;;4.23;1.60;;;;;;;1.80;100.00;101541.47;4982551;28;20088;-70
2021/03/08 01:26:08;;;;;;;6.20;1.53;;;;;;;1.81;100.00;101543.25;4985713;28;20033;-70
2021/03/08 01:28:34;;;;;;;6.87;1.57;;;;;;;1.82;100.00;101539.84;4984672;28;20101;-70
2021/03/08 01:30:59;;;;;;;7.33;2.10;;;;;;;1.80;100.00;101532.03;4983676;28;20022;-70
2021/03/08 01:33:25;;;;;;;9.93;2.10;;;;;;;1.84;100.00;101533.09;4982075;28;20018;-70
2021/03/08 01:35:50;;;;;;;10.60;2.27;;;;;;;1.82;100.00;101539.84;4982753;28;20030;-70
2021/03/08 01:38:16;;;;;;;16.93;2.50;;;;;;;1.80;100.00;101533.75;4984890;28;20045;-70
2021/03/08 01:40:41;;;;;;;8.20;2.50;;;;;;;1.77;100.00;101532.78;4982615;28;20022;-70
2021/03/08 01:43:09;;;;;;;15.80;2.37;;;;;;;1.77;100.00;101522.47;4987556;28;20114;-70
2021/03/08 01:45:35;;;;;;;10.97;2.13;;;;;;;1.80;100.00;101536.31;4990524;28;20029;-70
2021/03/08 01:48:00;;;;;;;11.67;2.10;;;;;;;1.78;100.00;101528.50;4988320;28;20273;-70
2021/03/08 01:50:40;;;;;;;7.80;2.20;;;;;;;1.74;100.00;101524.91;4987389;28;20077;-70
2021/03/08 01:53:08;;;;;;;11.90;2.37;;;;;;;1.72;100.00;101526.53;4988453;28;20499;-70
2021/03/08 01:55:35;;;;;;;12.60;2.80;;;;;;;1.74;100.00;101530.06;4985914;28;20646;-70
2021/03/08 01:58:00;;;;;;;13.33;2.50;;;;;;;1.75;100.00;101524.09;4988925;28;20269;-70
2021/03/08 02:00:27;;;;;;;13.30;2.70;;;;;;;1.77;100.00;101534.47;4987349;28;20292;-70
2021/03/08 02:02:54;;;;;;;16.87;2.87;;;;;;;1.76;100.00;101525.84;4983980;28;20056;-70
2021/03/08 02:05:23;;;;;;;11.53;2.80;;;;;;;1.71;100.00;101522.19;4981937;28;20308;-70
2021/03/08 02:07:48;;;;;;;13.33;2.83;;;;;;;1.71;100.00;101526.44;4982873;28;20751;-70
2021/03/08 02:10:15;;;;;;;13.03;3.53;;;;;;;1.66;100.00;101531.34;4985785;28;20296;-70
2021/03/08 02:12:47;;;;;;;13.87;2.43;;;;;;;1.63;100.00;101522.59;4983540;28;20061;-70
2021/03/08 02:15:18;;;;;;;18.10;2.80;;;;;;;1.59;100.00;101524.13;4983145;28;20291;-70
2021/03/08 02:18:08;;;;;;;10.50;2.60;;;;;;;1.61;100.00;101524.22;4985152;28;20630;-70
2021/03/08 02:20:51;;;;;;;13.73;2.73;;;;;;;1.53;100.00;101518.66;4988225;28;20713;-70
2021/03/08 02:23:23;;;;;;;10.37;2.67;;;;;;;1.54;100.00;101523.00;4985235;28;20384;-70
2021/03/08 02:26:15;;;;;;;17.03;3.30;;;;;;;1.48;100.00;101522.69;4988612;28;20765;-70
2021/03/08 02:28:53;;;;;;;10.57;2.58;;;;;;;1.42;100.00;101520.69;4989895;28;20650;-70
2021/03/08 02:31:21;;;;;;;12.17;2.83;;;;;;;1.35;100.00;101516.03;4986006;28;20042;-70
2021/03/08 02:33:57;;;;;;;13.43;2.67;;;;;;;1.33;100.00;101532.19;4985114;28;20313;-70
2021/03/08 02:36:28;;;;;;;16.67;3.13;;;;;;;1.29;100.00;101525.13;4989227;28;20289;-70
2021/03/08 02:39:12;;;;;;;15.77;2.70;;;;;;;1.23;100.00;101524.81;4986100;28;20308;-70
2021/03/08 02:41:37;;;;;;;13.93;2.70;;;;;;;1.14;100.00;101526.09;4985028;28;20277;-70
2021/03/08 02:44:14;;;;;;;13.67;2.23;;;;;;;1.06;100.00;101521.34;4985818;28;20270;-70
2021/03/08 02:46:43;;;;;;;11.13;2.60;;;;;;;0.92;100.00;101523.19;4984628;28;20365;-70
2021/03/08 02:49:15;;;;;;;12.90;2.93;;;;;;;0.90;100.00;101522.22;4992087;28;20277;-70
2021/03/08 02:51:46;;;;;;;11.95;2.83;;;;;;;0.89;100.00;101520.44;4984079;28;20766;-70
2021/03/08 02:54:14;;;;;;;21.47;3.43;;;;;;;0.96;100.00;101525.09;4984961;28;20050;-70
2021/03/08 02:56:42;;;;;;;15.20;2.83;;;;;;;0.98;100.00;101527.78;4982969;28;20599;-70
2021/03/08 02:59:09;;;;;;;13.97;3.13;;;;;;;0.99;100.00;101532.13;4988525;28;20365;-70
2021/03/08 03:01:36;;;;;;;12.13;3.10;;;;;;;0.98;100.00;101523.53;4981317;28;20285;-70
2021/03/08 03:04:05;;;;;;;14.60;3.37;;;;;;;0.98;100.00;101528.69;4983693;28;20294;-70
2021/03/08 03:06:33;;;;;;;18.60;3.30;;;;;;;0.94;100.00;101521.56;4985290;28;20281;-70
2021/03/08 03:09:03;;;;;;;22.67;3.23;;;;;;;1.00;100.00;101519.34;4977888;28;20287;-70
2021/03/08 03:11:30;;;;;;;18.33;2.90;;;;;;;1.04;100.00;101523.84;4985295;28;20637;-70
2021/03/08 03:13:57;;;;;;;16.37;3.33;;;;;;;1.06;100.00;101527.38;4981603;28;20282;-70
2021/03/08 03:16:23;;;;;;;17.13;3.73;;;;;;;1.08;100.00;101530.03;4979643;28;20269;-70
2021/03/08 03:18:54;;;;;;;19.73;3.63;;;;;;;1.08;100.00;101525.75;4977862;28;20270;-70
2021/03/08 03:21:24;;;;;;;20.53;3.30;;;;;;;1.07;100.00;101533.41;4980038;28;20313;-70
2021/03/08 03:23:52;;;;;;;25.40;3.80;;;;;;;1.01;100.00;101538.25;4982080;28;20763;-70
2021/03/08 03:26:18;;;;;;;19.30;4.03;;;;;;;0.89;100.00;101538.47;4981722;28;20294;-70
2021/03/08 03:28:45;;;;;;;12.97;3.27;;;;;;;0.82;100.00;101533.78;4990009;28;20281;-70
2021/03/08 03:31:11;;;;;;;23.57;4.83;;;;;;;0.79;100.00;101528.47;4984056;28;20293;-70
2021/03/08 03:33:38;;;;;;;17.47;3.43;;;;;;;0.76;100.00;101528.31;4982773;28;20293;-70
2021/03/08 03:36:04;;;;;;;21.97;3.80;;;;;;;0.83;100.00;101538.13;4984511;28;20292;-70
2021/03/08 03:38:31;;;;;;;21.30;4.23;;;;;;;0.74;100.00;101537.66;4985486;28;20789;-70
2021/03/08 03:40:57;;;;;;;24.87;3.77;;;;;;;0.71;100.00;101543.50;4979619;28;20357;-70
2021/03/08 03:43:23;;;;;;;26.10;3.93;;;;;;;0.69;100.00;101542.53;4987098;28;20289;-70
2021/03/08 03:45:48;;;;;;;21.80;3.70;;;;;;;0.66;100.00;101541.50;4986476;28;20273;-70
2021/03/08 03:48:14;;;;;;;15.20;3.83;;;;;;;0.52;100.00;101551.03;4988287;28;20411;-70
2021/03/08 03:50:39;;;;;;;15.10;3.73;;;;;;;0.30;100.00;101554.06;4987930;28;20027;-70
2021/03/08 03:53:06;;;;;;;20.87;4.33;;;;;;;0.24;100.00;101549.50;4988260;28;20072;-70
2021/03/08 03:55:32;;;;;;;23.80;4.63;;;;;;;0.25;100.00;101558.97;4984813;28;20033;-70
2021/03/08 03:58:10;;;;;;;23.53;4.40;;;;;;;0.19;100.00;101560.28;4984338;28;20285;-70
2021/03/08 04:01:14;;;;;;;26.40;4.47;;;;;;;0.12;100.00;101559.06;4981898;28;20054;-70
2021/03/08 04:03:54;;;;;;;23.00;4.50;;;;;;;0.08;100.00;101561.38;4980868;28;20377;-69
2021/03/08 04:06:22;;;;;;;19.63;4.90;;;;;;;0.05;100.00;101562.09;4989300;28;20269;-70
2021/03/08 04:08:52;;;;;;;21.27;4.57;;;;;;;0.04;100.00;101574.84;4989763;28;20331;-70
2021/03/08 04:11:19;;;;;;;23.83;5.07;;;;;;;0.00;100.00;101563.50;4989488;28;20775;-70
2021/03/08 04:13:47;;;;;;;18.10;5.47;;;;;;;-0.18;100.00;101568.47;4986682;28;20292;-70
2021/03/08 04:16:14;;;;;;;25.13;5.07;;;;;;;-0.19;100.00;101573.50;4986754;28;20254;-69
2021/03/08 04:18:42;;;;;;;20.60;5.30;;;;;;;-0.24;100.00;101577.47;4985591;28;20268;-70
2021/03/08 04:21:09;;;;;;;27.17;5.10;;;;;;;-0.36;100.00;101580.25;4990471;28;20273;-70
2021/03/08 04:23:38;;;;;;;31.97;5.73;;;;;;;-0.39;100.00;101585.16;4992217;28;20284;-70
2021/03/08 04:26:06;;;;;;;20.10;6.00;;;;;;;-0.60;100.00;101575.41;4992295;28;20261;-70
2021/03/08 04:28:33;;;;;;;23.80;5.70;;;;;;;-0.57;100.00;101584.09;4985650;28;20266;-70
2021/03/08 04:30:58;;;;;;;26.97;6.33;;;;;;;-0.60;100.00;101584.78;4986513;28;20339;-70
2021/03/08 04:33:24;;;;;;;33.40;7.33;;;;;;;-0.48;100.00;101592.34;4987400;28;20277;-70
2021/03/08 04:35:51;;;;;;;33.37;7.17;;;;;;;-0.42;100.00;101592.69;4990538;28;20419;-70
2021/03/08 04:38:17;;;;;;;38.80;7.10;;;;;;;-0.41;100.00;101594.47;4982389;28;20344;-70
2021/03/08 04:40:43;;;;;;;46.67;8.73;;;;;;;-0.37;100.00;101593.84;4983732;28;20357;-70
2021/03/08 04:43:09;;;;;;;35.80;7.77;;;;;;;-0.40;100.00;101596.25;4976740;28;20077;-70
2021/03/08 04:45:35;;;;;;;47.70;8.60;;;;;;;-0.34;100.00;101600.09;4979305;28;20383;-70
2021/03/08 04:48:04;;;;;;;37.33;8.23;;;;;;;-0.44;100.00;101599.44;4983554;28;20631;-70
2021/03/08 04:50:32;;;;;;;37.13;8.07;;;;;;;-0.40;100.00;101601.38;4983389;28;20117;-70
2021/03/08 04:52:57;;;;;;;47.67;8.00;;;;;;;-0.39;100.00;101603.16;4986078;28;20253;-70
2021/03/08 04:55:29;;;;;;;70.63;10.10;;;;;;;-0.39;100.00;101605.72;4985190;28;20288;-70
2021/03/08 04:57:54;;;;;;;89.47;10.87;;;;;;;-0.43;100.00;101601.22;4986819;28;20026;-70
2021/03/08 05:00:21;;;;;;;87.70;12.83;;;;;;;-0.54;100.00;101604.81;4989858;28;20272;-70
2021/03/08 05:02:48;;;;;;;85.70;12.03;;;;;;;-0.62;100.00;101602.66;4982614;28;20142;-70
2021/03/08 05:05:19;;;;;;;83.73;12.37;;;;;;;-0.66;100.00;101618.69;4981114;28;20304;-70
2021/03/08 05:07:46;;;;;;;92.23;13.13;;;;;;;-0.72;100.00;101620.88;4984339;28;20294;-70
2021/03/08 05:10:17;;;;;;;63.83;9.73;;;;;;;-0.70;100.00;101620.97;4984714;28;20289;-70
2021/03/08 05:12:43;;;;;;;63.57;8.93;;;;;;;-0.67;100.00;101626.28;4986694;28;20289;-70
2021/03/08 05:15:11;;;;;;;44.17;8.87;;;;;;;-0.72;100.00;101618.31;4982515;28;20633;-69
2021/03/08 05:17:38;;;;;;;38.17;8.43;;;;;;;-0.73;100.00;101628.47;4986428;28;20282;-70
2021/03/08 05:20:06;;;;;;;36.03;7.30;;;;;;;-0.75;100.00;101620.66;4989272;28;20274;-70
2021/03/08 05:22:35;;;;;;;56.40;8.97;;;;;;;-0.77;100.00;101629.97;4989173;28;20373;-70
2021/03/08 05:25:02;;;;;;;44.00;8.93;;;;;;;-0.88;100.00;101621.59;4989333;28;20646;-70
2021/03/08 05:27:28;;;;;;;50.40;9.00;;;;;;;-0.89;100.00;101618.94;4988882;28;20293;-69
2021/03/08 05:29:54;;;;;;;50.37;10.07;;;;;;;-0.97;100.00;101630.41;4987075;28;20289;-70
2021/03/08 05:32:27;;;;;;;56.40;10.03;;;;;;;-1.01;100.00;101629.31;4987633;28;20278;-69
2021/03/08 05:34:54;;;;;;;;;;;;;;;-1.11;100.00;101637.22;4990527;28;20297;-69
2021/03/08 05:37:20;;;;;;;46.77;8.17;;;;;;;-1.16;100.00;101632.59;4988516;28;19964;-68
2021/03/08 05:39:48;;;;;;;51.20;8.73;;;;;;;-1.23;100.00;101639.91;4985068;28;20270;-69
2021/03/08 05:42:15;;;;;;;52.33;7.83;;;;;;;-1.20;100.00;101637.56;4987781;28;20304;-68
2021/03/08 05:45:09;;;;;;;40.13;7.87;;;;;;;-1.31;100.00;101633.41;4987550;28;20270;-69
2021/03/08 05:48:08;;;;;;;35.60;7.50;;;;;;;-1.30;100.00;101640.31;4989329;28;20766;-69
2021/03/08 05:50:58;;;;;;;33.97;6.70;;;;;;;-1.36;100.00;101644.16;4991984;28;20408;-69
2021/03/08 05:53:58;;;;;;;31.33;6.83;;;;;;;-1.37;100.00;101647.50;4986498;28;20382;-69
2021/03/08 05:56:36;;;;;;;41.47;7.00;;;;;;;-1.45;100.00;101647.03;4993052;28;20273;-69
2021/03/08 05:59:21;;;;;;;29.23;7.73;;;;;;;-1.42;100.00;101649.78;4993464;28;20819;-69
2021/03/08 06:02:03;;;;;;;29.37;6.10;;;;;;;-1.40;100.00;101661.03;4990089;28;20327;-69
2021/03/08 06:04:47;;;;;;;27.95;5.25;;;;;;;-1.42;100.00;101660.06;4992349;28;20289;-69
2021/03/08 06:07:31;;;;;;;26.90;6.47;;;;;;;-1.45;100.00;101656.38;4994834;28;20049;-69
2021/03/08 06:10:10;;;;;;;31.70;6.37;;;;;;;-1.47;100.00;101657.16;4989702;28;20293;-69
2021/03/08 06:12:37;;;;;;;33.13;6.40;;;;;;;-1.53;100.00;101656.78;4992175;28;20273;-69
2021/03/08 06:15:05;;;;;;;33.50;6.27;;;;;;;-1.46;100.00;101658.06;4993811;28;20277;-69
2021/03/08 06:17:32;;;;;;;35.83;6.60;;;;;;;-1.34;100.00;101669.09;4994334;28;20698;-69
2021/03/08 06:19:59;;;;;;;27.17;6.53;;;;;;;-1.25;100.00;101664.56;4991485;28;20361;-69
2021/03/08 06:22:25;;;;;;;32.40;7.47;;;;;;;-1.19;100.00;101671.81;4991003;28;20417;-69
2021/03/08 06:24:51;;;;;;;31.33;6.27;;;;;;;-1.17;100.00;101666.75;4993098;28;20290;-69
2021/03/08 06:27:21;;;;;;;32.20;6.83;;;;;;;-1.13;100.00;101664.47;4993302;28;20056;-69
2021/03/08 06:29:46;;;;;;;28.10;7.23;;;;;;;-1.08;100.00;101677.63;4990035;28;20278;-69
2021/03/08 06:32:12;;;;;;;44.53;7.67;;;;;;;-1.06;100.00;101670.91;4993496;28;20336;-69
2021/03/08 06:34:40;;;;;;;31.57;6.87;;;;;;;-1.02;100.00;101688.25;4990553;28;20022;-69
2021/03/08 06:37:08;;;;;;;33.10;8.40;;;;;;;-0.96;100.00;101683.53;4993233;28;20026;-69
2021/03/08 06:39:35;;;;;;;35.07;8.27;;;;;;;-0.94;100.00;101676.81;4992364;28;20289;-69
2021/03/08 06:42:02;;;;;;;34.87;8.37;;;;;;;-0.85;100.00;101682.50;4994553;28;20706;-68
2021/03/08 06:44:28;;;;;;;27.77;7.33;;;;;;;-0.81;100.00;101674.22;4993620;28;20319;-68
2021/03/08 06:46:54;;;;;;;21.73;7.40;;;;;;;-0.82;100.00;101677.59;4994306;28;20269;-68
2021/03/08 06:49:19;;;;;;;22.90;6.43;;;;;;;-0.78;100.00;101681.22;4993722;28;20030;-68
2021/03/08 06:52:15;;;;;;;17.67;6.70;;;;;;;-0.78;100.00;101688.94;4993889;28;20379;-68
2021/03/08 06:54:57;;;;;;;16.47;5.47;;;;;;;-0.81;100.00;101684.50;4990313;28;20038;-68
2021/03/08 06:57:26;;;;;;;15.63;5.38;;;;;;;-0.90;100.00;101684.78;4986491;28;20289;-68
2021/03/08 06:59:53;;;;;;;13.77;4.87;;;;;;;-0.75;100.00;101694.25;4993494;28;20117;-68
2021/03/08 07:02:20;;;;;;;15.83;5.63;;;;;;;-0.69;100.00;101689.50;4993062;28;20308;-68
2021/03/08 07:04:46;;;;;;;21.50;6.50;;;;;;;-0.52;100.00;101693.13;4992661;28;20332;-68
2021/03/08 07:07:13;;;;;;;20.20;7.00;;;;;;;-0.43;100.00;101688.56;4993971;28;20336;-68
2021/03/08 07:09:52;;;;;;;25.90;8.03;;;;;;;-0.31;100.00;101686.72;4993252;28;20034;-69
2021/03/08 07:12:18;;;;;;;32.40;7.63;;;;;;;-0.24;100.00;101700.81;4990928;28;20607;-69
2021/03/08 07:14:45;;;;;;;19.87;5.93;;;;;;;-0.18;100.00;101699.53;4988441;28;20765;-69
2021/03/08 07:17:34;;;;;;;20.03;6.67;;;;;;;-0.16;100.00;101700.50;4993620;28;20254;-69
2021/03/08 07:20:06;;;;;;;19.90;5.67;;;;;;;-0.13;100.00;101705.81;4992255;28;20281;-69
2021/03/08 07:22:39;;;;;;;14.80;5.30;;;;;;;-0.10;100.00;101711.19;4993638;28;20292;-69
2021/03/08 07:25:07;;;;;;;19.03;5.40;;;;;;;-0.06;100.00;101719.94;4990974;28;20073;-69
2021/03/08 07:27:41;;;;;;;18.27;5.73;;;;;;;-0.06;100.00;101705.41;4991895;28;20308;-68
2021/03/08 07:30:07;;;;;;;15.37;5.50;;;;;;;0.04;100.00;101711.13;4991995;28;20343;-69
2021/03/08 07:32:32;;;;;;;19.53;5.70;;;;;;;0.03;100.00;101702.53;4993314;28;20273;-69
2021/03/08 07:34:58;;;;;;;13.23;5.17;;;;;;;0.14;100.00;101713.44;4993052;28;20612;-69
2021/03/08 07:37:23;;;;;;;17.33;5.40;;;;;;;0.17;100.00;101716.19;4992519;28;20049;-69
2021/03/08 07:39:53;;;;;;;14.33;4.83;;;;;;;0.20;100.00;101716.38;4990034;28;20034;-69
2021/03/08 07:42:18;;;;;;;17.07;5.70;;;;;;;0.29;100.00;101717.81;4991419;28;20087;-68
2021/03/08 07:44:51;;;;;;;17.33;4.90;;;;;;;0.36;100.00;101719.03;4995104;28;20352;-69
2021/03/08 07:47:21;;;;;;;10.97;3.93;;;;;;;0.45;100.00;101723.84;4992927;28;20030;-69
2021/03/08 07:49:47;;;;;;;14.40;4.77;;;;;;;0.47;100.00;101722.25;4990458;28;20567;-69
2021/03/08 07:52:14;;;;;;;15.57;4.73;;;;;;;0.64;100.00;101725.81;4991876;28;20277;-69
2021/03/08 07:55:00;;;;;;;10.70;4.43;;;;;;;1.31;100.00;101730.50;4992235;28;20030;-69
2021/03/08 07:57:27;;;;;;;11.30;3.83;;;;;;;2.48;100.00;101728.13;4988166;28;20289;-69
2021/03/08 07:59:53;;;;;;;8.13;3.10;;;;;;;3.35;100.00;101735.00;4992326;28;20309;-69
2021/03/08 08:02:20;;;;;;;9.37;3.67;;;;;;;3.99;100.00;101753.47;4992563;28;20667;-69
2021/03/08 08:04:45;;;;;;;10.97;2.53;;;;;;;4.19;100.00;101743.13;4992538;28;20133;-69
2021/03/08 08:07:13;;;;;;;5.43;2.20;;;;;;;4.68;98.58;101744.44;4992803;28;20349;-69
2021/03/08 08:09:43;;;;;;;5.63;2.10;;;;;;;5.20;95.01;101750.84;4992657;28;20430;-69
2021/03/08 08:12:16;;;;;;;10.57;2.97;;;;;;;5.64;90.81;101744.84;4993649;28;20034;-70
2021/03/08 08:14:43;;;;;;;4.47;1.60;;;;;;;6.19;87.11;101746.94;4986505;28;20378;-70
2021/03/08 08:17:13;;;;;;;10.13;2.30;;;;;;;6.16;83.05;101754.59;4999647;28;20462;-71
2021/03/08 08:19:43;;;;;;;4.57;1.83;;;;;;;6.22;82.81;101749.63;4992582;28;20109;-71
2021/03/08 08:22:15;;;;;;;5.73;2.23;;;;;;;6.31;83.22;101752.56;4991560;28;20382;-71
2021/03/08 08:24:44;;;;;;;7.32;2.22;;;;;;;6.75;83.54;101750.59;4991093;28;20032;-72
2021/03/08 08:30:22;;;;;;;8.83;1.60;;;;;;;7.10;78.61;101756.09;4987503;28;20533;-72
2021/03/08 08:32:53;;;;;;;5.83;1.60;;;;;;;7.34;77.08;101756.88;4992457;28;20032;-73
2021/03/08 08:35:21;;;;;;;5.63;1.63;;;;;;;7.22;75.95;101756.50;4992568;28;20026;-71
2021/03/08 08:38:20;;;;;;;7.60;1.77;;;;;;;7.34;71.93;101749.09;4992193;28;20026;-71
2021/03/08 08:40:47;;;;;;;4.40;1.50;;;;;;;7.50;71.02;101753.91;4987567;28;20113;-70
2021/03/08 08:43:15;;;;;;;6.60;1.50;;;;;;;7.33;72.30;101753.41;4992605;28;20053;-70
2021/03/08 08:45:49;;;;;;;6.60;1.80;;;;;;;7.32;69.65;101750.75;4988008;28;20096;-70
2021/03/08 08:48:16;;;;;;;3.90;1.20;;;;;;;7.39;70.71;101760.53;4991608;28;20086;-70
2021/03/08 08:50:52;;;;;;;4.30;1.40;;;;;;;7.61;68.36;101760.34;4987896;28;20031;-70
2021/03/08 08:53:30;;;;;;;3.77;1.30;;;;;;;7.93;66.64;101752.63;4993605;28;20022;-71
2021/03/08 08:55:56;;;;;;;4.53;1.30;;;;;;;8.17;66.21;101750.72;4996545;28;20058;-70
2021/03/08 08:58:31;;;;;;;4.07;1.30;;;;;;;8.08;65.94;101753.06;4996147;28;20061;-70
2021/03/08 09:01:13;;;;;;;3.67;1.17;;;;;;;8.10;65.36;101746.16;4995968;28;20022;-71
2021/03/08 09:04:09;;;;;;;3.53;1.30;;;;;;;8.62;64.80;101747.66;4996500;28;20046;-71
2021/03/08 09:06:44;;;;;;;5.63;1.40;;;;;;;9.30;64.44;101744.97;4994768;28;20116;-71
2021/03/08 09:09:11;;;;;;;7.97;1.33;;;;;;;9.89;61.35;101743.69;4995783;28;20037;-71
2021/03/08 09:11:47;;;;;;;10.07;1.57;;;;;;;10.25;57.77;101759.28;4995984;28;20490;-70
2021/03/08 09:14:29;;;;;;;4.00;1.23;;;;;;;10.28;57.64;101748.00;4995485;28;20042;-70
2021/03/08 09:17:16;;;;;;;4.43;1.13;;;;;;;10.31;55.29;101752.44;4996459;28;20026;-69
2021/03/08 09:19:44;;;;;;;5.73;1.40;;;;;;;9.69;55.93;101751.13;4983156;28;20034;-68
2021/03/08 09:22:22;;;;;;;4.50;1.10;;;;;;;9.29;55.81;101758.88;4995980;28;20022;-68
2021/03/08 09:25:11;;;;;;;3.80;1.07;;;;;;;9.32;56.95;101753.72;4995668;28;20042;-68
2021/03/08 09:27:39;;;;;;;8.10;1.63;;;;;;;8.86;58.92;101762.16;4995618;28;20064;-68
2021/03/08 09:30:14;;;;;;;2.10;0.80;;;;;;;7.68;61.74;101766.63;4995735;28;20053;-68
2021/03/08 09:32:58;;;;;;;4.37;1.10;;;;;;;6.33;65.88;101760.41;4994724;28;20105;-68
2021/03/08 09:35:25;;;;;;;3.53;1.00;;;;;;;5.55;70.58;101760.03;4995211;28;20038;-67
2021/03/08 09:37:56;;;;;;;5.37;1.53;;;;;;;5.09;75.23;101760.81;4995318;28;20022;-67
2021/03/08 09:40:27;;;;;;;9.67;1.50;;;;;;;4.77;79.32;101764.66;4995109;28;20672;-67
2021/03/08 09:42:53;;;;;;;4.67;1.30;;;;;;;4.66;78.93;101764.22;4995658;28;20045;-67
2021/03/08 09:45:30;;;;;;;6.40;1.50;;;;;;;4.61;79.10;101763.13;4995323;28;20030;-67
2021/03/08 09:47:57;;;;;;;6.43;1.63;;;;;;;4.34;78.05;101762.81;5003840;28;20030;-67
2021/03/08 09:50:34;;;;;;;4.27;1.40;;;;;;;4.35;77.05;101769.75;4994985;28;20030;-67
2021/03/08 09:53:00;;;;;;;4.27;1.30;;;;;;;4.43;77.14;101762.34;4997811;28;20022;-68
2021/03/08 09:55:33;;;;;;;6.27;1.70;;;;;;;4.46;79.34;101762.47;4999412;28;20379;-68
2021/03/08 09:58:11;;;;;;;3.93;1.33;;;;;;;4.53;81.42;101754.16;4995504;28;20129;-68
2021/03/08 10:00:37;;;;;;;3.83;1.40;;;;;;;4.58;81.98;101762.97;4987895;28;20320;-68
2021/03/08 10:03:05;;;;;;;5.67;1.40;;;;;;;4.47;77.18;101761.63;4994517;28;20289;-68
2021/03/08 10:05:48;;;;;;;5.23;1.90;;;;;;;4.22;79.71;101766.56;4995033;28;20344;-68
2021/03/08 10:08:19;;;;;;;3.63;1.40;;;;;;;4.25;83.72;101761.53;4995218;28;20622;-68
2021/03/08 10:10:52;;;;;;;6.03;1.80;;;;;;;4.24;77.46;101754.56;4995329;28;20299;-68
2021/03/08 10:13:19;;;;;;;4.03;1.43;;;;;;;4.05;79.17;101764.13;5000908;28;20267;-68
2021/03/08 10:15:48;;;;;;;4.70;1.30;;;;;;;4.43;82.93;101767.50;4994885;28;20611;-68
2021/03/08 10:18:15;;;;;;;8.13;1.77;;;;;;;4.57;78.93;101760.34;4994983;28;20270;-68
2021/03/08 10:20:46;;;;;;;4.30;1.27;;;;;;;4.52;76.59;101757.56;4993048;28;20300;-68
2021/03/08 10:23:24;;;;;;;4.33;1.47;;;;;;;4.54;78.94;101765.38;4994475;28;20277;-68
2021/03/08 10:25:50;;;;;;;4.07;1.40;;;;;;;4.55;80.44;101757.69;4994473;28;20269;-68
2021/03/08 10:28:16;;;;;;;3.50;1.50;;;;;;;4.58;79.03;101757.81;4994907;28;20273;-68
2021/03/08 10:30:42;;;;;;;4.03;1.57;;;;;;;4.59;75.42;101764.75;4994589;28;20305;-68
2021/03/08 10:33:12;;;;;;;5.60;1.70;;;;;;;4.66;79.14;101761.63;4994724;28;20463;-67
2021/03/08 10:35:44;;;;;;;5.27;1.53;;;;;;;4.70;76.34;101749.66;4994281;28;20278;-68
2021/03/08 10:38:11;;;;;;;3.33;1.35;;;;;;;4.67;75.53;101758.19;4993530;28;20312;-68
2021/03/08 10:40:38;;;;;;;6.70;1.53;;;;;;;4.64;75.69;101755.50;4993909;28;20035;-68
2021/03/08 10:43:03;;;;;;;3.03;1.13;;;;;;;4.77;71.94;101759.47;4994075;28;20388;-68
2021/03/08 10:45:29;;;;;;;3.33;1.17;;;;;;;4.87;70.37;101769.41;4993869;28;20357;-68
2021/03/08 10:48:11;;;;;;;3.93;1.20;;;;;;;4.67;65.38;101763.38;4994167;28;20027;-68
2021/03/08 10:50:46;;;;;;;2.95;1.05;;;;;;;4.58;67.97;101762.97;4994363;28;20027;-68
2021/03/08 10:53:14;;;;;;;5.00;1.30;;;;;;;4.67;73.36;101765.09;4994014;28;20026;-68
2021/03/08 10:55:40;;;;;;;3.20;1.10;;;;;;;4.73;72.36;101760.19;4994076;28;20274;-68
2021/03/08 10:58:06;;;;;;;3.67;1.70;;;;;;;4.86;71.46;101756.41;4994434;28;20740;-68
2021/03/08 11:00:32;;;;;;;3.53;1.47;;;;;;;4.84;72.43;101750.25;4993667;28;20027;-68
2021/03/08 11:03:00;;;;;;;4.70;1.50;;;;;;;5.00;74.50;101748.38;4993135;28;20289;-68
2021/03/08 11:05:26;;;;;;;6.43;1.27;;;;;;;5.01;68.69;101749.25;5008709;28;20730;-68
2021/03/08 11:07:52;;;;;;;4.87;1.10;;;;;;;4.97;67.09;101749.97;4993960;28;20854;-68
2021/03/08 11:10:31;;;;;;;4.23;1.53;;;;;;;4.84;67.53;101758.00;4993837;28;20120;-68
2021/03/08 11:13:04;;;;;;;5.20;1.40;;;;;;;4.96;65.97;101755.94;4993027;28;20116;-68
2021/03/08 11:15:30;;;;;;;5.50;1.77;;;;;;;4.98;66.53;101759.50;4993010;28;20037;-68
2021/03/08 11:17:55;;;;;;;7.97;1.73;;;;;;;5.01;66.03;101759.63;4993831;28;20312;-67
2021/03/08 11:20:24;;;;;;;3.77;1.43;;;;;;;5.06;66.65;101758.09;4993407;28;20297;-68
2021/03/08 11:22:51;;;;;;;3.80;1.53;;;;;;;4.89;66.24;101756.53;4993554;28;20022;-68
2021/03/08 11:25:40;;;;;;;6.87;1.53;;;;;;;4.79;65.70;101757.84;4993486;28;20277;-68
2021/03/08 11:28:15;;;;;;;4.43;1.40;;;;;;;4.84;68.51;101755.41;4993409;28;20273;-68
2021/03/08 11:30:53;;;;;;;4.50;1.50;;;;;;;4.95;69.26;101748.97;4993335;28;20289;-68
2021/03/08 11:33:19;;;;;;;3.37;1.10;;;;;;;5.26;66.24;101748.53;4993146;28;20712;-68
2021/03/08 11:35:51;;;;;;;3.20;1.20;;;;;;;5.38;63.88;101748.13;4993420;28;20272;-68